Time;durP1;ratioP1;P1;durP2;ratioP2;P2;SDS_P1;SDS_P2;PMS_P1;PMS_P2;Temp;Humidity;BMP_temperature;BMP_pressure;BME280_temperature;BME280_humidity;BME280_pressure;Samples;Min_cycle;Max_cycle;Signal;HPM_P1;HPM_P2
2023/07/15 00:04:25;;;;;;;4.93;4.53;;;;;;;;;;10348186;28;20119;-75
2023/07/15 00:09:29;;;;;;;4.35;3.95;;;;;;;;;;10346161;28;20038;-74
2023/07/15 00:14:30;;;;;;;4.60;4.20;;;;;;;;;;10347322;28;20100;-75
2023/07/15 00:19:33;;;;;;;5.00;4.43;;;;;;;;;;10347904;28;20038;-75
2023/07/15 00:24:33;;;;;;;;;;;;;;;;;;10344027;28;20069;-75
2023/07/15 00:29:34;;;;;;;4.93;4.32;;;;;;;;;;10341836;28;19917;-75
2023/07/15 00:34:34;;;;;;;5.07;4.60;;;;;;;;;;10347827;28;20747;-76
2023/07/15 00:39:35;;;;;;;4.00;3.70;;;;;;;;;;10349069;28;20164;-77
2023/07/15 00:44:36;;;;;;;5.20;4.60;;;;;;;;;;10338771;28;20053;-75
2023/07/15 00:49:37;;;;;;;4.72;4.10;;;;;;;;;;10340405;28;20037;-74
2023/07/15 00:54:41;;;;;;;4.37;3.97;;;;;;;;;;10343252;28;20048;-76
2023/07/15 00:59:42;;;;;;;4.40;4.00;;;;;;;;;;10340990;28;20579;-76
2023/07/15 01:04:43;;;;;;;5.28;4.13;;;;;;;;;;10344641;28;20042;-77
2023/07/15 01:09:44;;;;;;;5.17;4.10;;;;;;;;;;10346299;28;20040;-75
2023/07/15 01:14:44;;;;;;;5.18;4.68;;;;;;;;;;10343467;28;20062;-76
2023/07/15 01:19:45;;;;;;;5.28;4.80;;;;;;;;;;10357935;28;20041;-76
2023/07/15 01:24:45;;;;;;;5.13;4.63;;;;;;;;;;10357649;28;20145;-76
2023/07/15 01:29:46;;;;;;;4.87;4.37;;;;;;;;;;10355540;28;20437;-76
2023/07/15 01:34:47;;;;;;;5.32;4.82;;;;;;;;;;10346724;28;20783;-77
2023/07/15 01:39:49;;;;;;;6.22;4.78;;;;;;;;;;10345681;28;20042;-76
2023/07/15 01:44:49;;;;;;;5.20;4.80;;;;;;;;;;10345796;28;20049;-74
2023/07/15 01:49:50;;;;;;;5.20;4.70;;;;;;;;;;10342023;28;20045;-76
2023/07/15 01:54:50;;;;;;;4.93;4.50;;;;;;;;;;10342876;28;20145;-75
2023/07/15 01:59:57;;;;;;;4.80;4.40;;;;;;;;;;10348460;28;20083;-74
2023/07/15 02:04:57;;;;;;;5.43;4.35;;;;;;;;;;10354346;28;20384;-75
2023/07/15 02:10:00;;;;;;;5.25;4.75;;;;;;;;;;10350892;28;20045;-75
2023/07/15 02:15:01;;;;;;;4.90;4.47;;;;;;;;;;10353262;28;20065;-76
2023/07/15 02:20:01;;;;;;;5.33;4.83;;;;;;;;;;10350370;28;20722;-74
2023/07/15 02:25:02;;;;;;;5.97;4.60;;;;;;;;;;10358408;28;20358;-76
2023/07/15 02:30:05;;;;;;;4.88;4.47;;;;;;;;;;10347583;28;20301;-76
2023/07/15 02:35:08;;;;;;;6.20;5.03;;;;;;;;;;10350038;28;20132;-74
2023/07/15 02:40:10;;;;;;;5.72;4.95;;;;;;;;;;10349212;28;20048;-74
2023/07/15 02:45:11;;;;;;;5.00;4.60;;;;;;;;;;10352698;28;20036;-73
2023/07/15 02:50:12;;;;;;;5.53;5.03;;;;;;;;;;10349950;28;20121;-74
2023/07/15 02:55:12;;;;;;;4.70;4.30;;;;;;;;;;10350340;28;20153;-74
2023/07/15 03:00:15;;;;;;;5.05;4.65;;;;;;;;;;10352773;28;20509;-75
2023/07/15 03:05:18;;;;;;;;;;;;;;;;;;10350341;28;20037;-74
2023/07/15 03:10:18;;;;;;;5.43;4.90;;;;;;;;;;10349950;28;20386;-74
2023/07/15 03:15:19;;;;;;;5.55;4.70;;;;;;;;;;10347732;28;20058;-75
2023/07/15 03:20:20;;;;;;;4.97;4.57;;;;;;;;;;10348701;28;20069;-75
2023/07/15 03:25:22;;;;;;;4.90;4.35;;;;;;;;;;10351675;28;20034;-73
2023/07/15 03:30:22;;;;;;;5.70;4.75;;;;;;;;;;10346930;28;20041;-76
2023/07/15 03:35:24;;;;;;;5.20;4.80;;;;;;;;;;10353288;28;20050;-75
2023/07/15 03:40:24;;;;;;;5.38;4.85;;;;;;;;;;10345526;28;20049;-74
2023/07/15 03:45:24;;;;;;;5.43;4.93;;;;;;;;;;10349233;28;20487;-75
2023/07/15 03:50:24;;;;;;;5.33;4.83;;;;;;;;;;10341446;28;20165;-75
2023/07/15 03:55:25;;;;;;;5.17;4.67;;;;;;;;;;10346781;28;20056;-76
2023/07/15 04:00:25;;;;;;;5.70;4.40;;;;;;;;;;10340689;28;20562;-76
2023/07/15 04:05:26;;;;;;;5.40;5.00;;;;;;;;;;10339448;28;20038;-77
2023/07/15 04:10:26;;;;;;;5.10;4.47;;;;;;;;;;10351727;28;20042;-76
2023/07/15 04:15:27;;;;;;;4.90;4.45;;;;;;;;;;10344541;28;20231;-76
2023/07/15 04:20:27;;;;;;;5.10;4.35;;;;;;;;;;10351483;28;20042;-76
2023/07/15 04:25:27;;;;;;;5.13;4.70;;;;;;;;;;10347393;28;20037;-76
2023/07/15 04:30:28;;;;;;;4.60;4.10;;;;;;;;;;10344053;28;20041;-75
2023/07/15 04:35:28;;;;;;;4.93;4.47;;;;;;;;;;10342222;28;20080;-76
2023/07/15 04:40:28;;;;;;;4.90;4.43;;;;;;;;;;10346161;28;20454;-77
2023/07/15 04:45:30;;;;;;;5.57;4.30;;;;;;;;;;10344386;28;20774;-77
2023/07/15 04:50:30;;;;;;;4.18;3.88;;;;;;;;;;10348398;28;20618;-77
2023/07/15 04:55:30;;;;;;;4.13;3.83;;;;;;;;;;10342903;28;20050;-77
2023/07/15 05:00:31;;;;;;;4.90;4.40;;;;;;;;;;10344733;28;20388;-74
2023/07/15 05:05:31;;;;;;;3.97;3.67;;;;;;;;;;10345062;28;20307;-76
2023/07/15 05:10:32;;;;;;;4.53;3.85;;;;;;;;;;10342607;28;20035;-75
2023/07/15 05:15:34;;;;;;;4.25;3.90;;;;;;;;;;10342198;28;20091;-76
2023/07/15 05:20:35;;;;;;;5.10;4.50;;;;;;;;;;10346791;28;20036;-77
2023/07/15 05:25:36;;;;;;;4.97;4.57;;;;;;;;;;10345633;28;20033;-77
2023/07/15 05:30:37;;;;;;;4.90;3.77;;;;;;;;;;10348568;28;20037;-76
2023/07/15 05:35:37;;;;;;;4.75;4.30;;;;;;;;;;10339958;28;20063;-73
2023/07/15 05:40:39;;;;;;;4.18;3.72;;;;;;;;;;10343131;28;20104;-74
2023/07/15 05:45:40;;;;;;;5.57;4.18;;;;;;;;;;10343145;28;20494;-76
2023/07/15 05:50:40;;;;;;;4.32;3.90;;;;;;;;;;10343861;28;20088;-74
2023/07/15 05:55:41;;;;;;;4.97;4.47;;;;;;;;;;10350924;28;20685;-75
2023/07/15 06:00:41;;;;;;;4.83;4.43;;;;;;;;;;10350314;28;20457;-76
2023/07/15 06:05:42;;;;;;;4.97;3.95;;;;;;;;;;10349229;28;20280;-75
2023/07/15 06:10:45;;;;;;;6.10;4.40;;;;;;;;;;10343581;28;20041;-75
2023/07/15 06:15:49;;;;;;;4.68;4.28;;;;;;;;;;10342290;28;20092;-77
2023/07/15 06:20:49;;;;;;;4.43;4.03;;;;;;;;;;10344688;28;20072;-76
2023/07/15 06:25:50;;;;;;;5.40;4.30;;;;;;;;;;10341277;28;20038;-79
2023/07/15 06:30:59;;;;;;;5.17;4.10;;;;;;;;;;10347371;28;20069;-82
2023/07/15 06:36:00;;;;;;;5.88;4.10;;;;;;;;;;10352581;28;20042;-73
2023/07/15 06:41:00;;;;;;;4.82;4.32;;;;;;;;;;10377651;28;20064;-82
2023/07/15 06:46:00;;;;;;;4.45;4.00;;;;;;;;;;10387272;28;20061;-78
2023/07/15 06:51:01;;;;;;;4.70;4.17;;;;;;;;;;10385339;28;20068;-81
2023/07/15 06:56:02;;;;;;;4.70;4.30;;;;;;;;;;10519981;22;20050;-81
2023/07/15 07:01:02;;;;;;;4.65;4.10;;;;;;;;;;10316355;28;20038;-80
2023/07/15 07:06:03;;;;;;;4.47;4.03;;;;;;;;;;10310952;28;20034;-79
2023/07/15 07:11:03;;;;;;;3.75;3.45;;;;;;;;;;10330140;28;20502;-81
2023/07/15 07:16:04;;;;;;;4.60;3.92;;;;;;;;;;10349972;28;20034;-78
2023/07/15 07:21:05;;;;;;;7.10;3.85;;;;;;;;;;10341214;28;20109;-80
2023/07/15 07:26:05;;;;;;;4.78;4.13;;;;;;;;;;10308197;28;20042;-75
2023/07/15 07:31:05;;;;;;;6.17;4.10;;;;;;;;;;10308647;28;20046;-74
2023/07/15 07:36:07;;;;;;;7.20;4.03;;;;;;;;;;10312937;28;20392;-81
2023/07/15 07:41:08;;;;;;;;;;;;;;;;;;10317504;28;20545;-82
2023/07/15 07:46:09;;;;;;;4.30;3.90;;;;;;;;;;10332018;28;19917;-79
2023/07/15 07:51:11;;;;;;;7.60;4.22;;;;;;;;;;10330843;28;20050;-84
2023/07/15 07:56:12;;;;;;;4.07;3.77;;;;;;;;;;10310280;28;20514;-79
2023/07/15 08:01:12;;;;;;;5.17;4.67;;;;;;;;;;10278992;28;20031;-81
2023/07/15 08:06:12;;;;;;;5.53;4.10;;;;;;;;;;10286069;28;20034;-78
2023/07/15 08:11:13;;;;;;;4.47;3.47;;;;;;;;;;10293302;28;20085;-82
2023/07/15 08:16:33;;;;;;;4.17;3.77;;;;;;;;;;10292755;28;20031;-78
2023/07/15 08:21:33;;;;;;;4.70;3.20;;;;;;;;;;10274806;28;20082;-80
2023/07/15 08:26:33;;;;;;;3.40;3.10;;;;;;;;;;10270283;28;20089;-81
2023/07/15 08:31:34;;;;;;;3.27;2.80;;;;;;;;;;10272359;28;20038;-87
2023/07/15 08:36:36;;;;;;;3.55;3.10;;;;;;;;;;10295039;28;20098;-87
2023/07/15 08:41:38;;;;;;;3.40;3.10;;;;;;;;;;10280766;28;20797;-86
2023/07/15 08:46:40;;;;;;;;;;;;;;;;;;10281131;28;20038;-85
2023/07/15 08:51:41;;;;;;;2.77;2.50;;;;;;;;;;10282132;28;19925;-85
2023/07/15 08:56:44;;;;;;;3.23;2.80;;;;;;;;;;10279764;28;20034;-83
2023/07/15 09:01:45;;;;;;;5.15;3.40;;;;;;;;;;10290813;28;20051;-82
2023/07/15 09:06:47;;;;;;;3.37;2.73;;;;;;;;;;10331007;28;20039;-82
2023/07/15 09:11:49;;;;;;;2.75;2.50;;;;;;;;;;10379031;28;20053;-85
2023/07/15 09:17:15;;;;;;;2.88;2.40;;;;;;;;;;10353055;28;20038;-82
2023/07/15 09:22:37;;;;;;;2.92;2.25;;;;;;;;;;10365956;28;20142;-85
2023/07/15 09:32:57;;;;;;;2.13;1.90;;;;;;;;;;10324317;28;20050;-86
2023/07/15 09:37:59;;;;;;;2.40;2.20;;;;;;;;;;10357688;28;20046;-84
2023/07/15 09:43:00;;;;;;;3.10;2.17;;;;;;;;;;10361797;28;20076;-83
2023/07/15 09:48:02;;;;;;;2.47;2.20;;;;;;;;;;10354593;28;20077;-79
2023/07/15 09:53:06;;;;;;;2.55;1.63;;;;;;;;;;10343465;28;20046;-80
2023/07/15 09:58:24;;;;;;;3.45;1.83;;;;;;;;;;10272243;28;20108;-78
2023/07/15 10:03:29;;;;;;;2.85;2.28;;;;;;;;;;10305127;28;20145;-86
2023/07/15 10:08:30;;;;;;;1.90;1.55;;;;;;;;;;10285643;28;20169;-83
2023/07/15 10:13:31;;;;;;;3.35;2.05;;;;;;;;;;10284203;28;20063;-82
2023/07/15 10:18:31;;;;;;;;;;;;;;;;;;10264367;28;20797;-77
2023/07/15 10:23:32;;;;;;;2.92;1.65;;;;;;;;;;10484811;23;19929;-82
2023/07/15 10:28:34;;;;;;;2.00;1.90;;;;;;;;;;10356075;28;20145;-85
2023/07/15 10:33:35;;;;;;;4.18;1.85;;;;;;;;;;10369401;28;20049;-83
2023/07/15 10:38:36;;;;;;;2.67;2.00;;;;;;;;;;10364736;28;20049;-81
2023/07/15 10:43:38;;;;;;;2.92;2.38;;;;;;;;;;10363785;28;20041;-79
2023/07/15 10:48:39;;;;;;;3.40;2.33;;;;;;;;;;10362127;28;20109;-81
2023/07/15 10:53:39;;;;;;;2.78;1.75;;;;;;;;;;10354909;28;20038;-78
2023/07/15 10:58:40;;;;;;;2.20;2.00;;;;;;;;;;10340425;28;20038;-80
2023/07/15 11:03:42;;;;;;;2.72;1.90;;;;;;;;;;10324972;28;21196;-80
2023/07/15 11:08:44;;;;;;;3.13;1.98;;;;;;;;;;10329249;28;20050;-84
2023/07/15 11:13:46;;;;;;;3.15;2.00;;;;;;;;;;10323751;28;20046;-81
2023/07/15 11:18:46;;;;;;;1.92;1.70;;;;;;;;;;10328249;28;20035;-83
2023/07/15 11:23:48;;;;;;;3.50;3.10;;;;;;;;;;10346124;28;20046;-81
2023/07/15 11:28:49;;;;;;;3.83;2.00;;;;;;;;;;10343770;28;20061;-83
2023/07/15 11:33:57;;;;;;;2.10;1.90;;;;;;;;;;10343873;28;20463;-81
2023/07/15 11:39:00;;;;;;;2.17;1.98;;;;;;;;;;10331259;28;20050;-83
2023/07/15 11:44:00;;;;;;;2.60;1.80;;;;;;;;;;10344039;28;20057;-78
2023/07/15 11:49:03;;;;;;;2.22;2.03;;;;;;;;;;10359501;28;20050;-83
2023/07/15 11:54:10;;;;;;;2.00;1.80;;;;;;;;;;10344240;28;20153;-81
2023/07/15 11:59:26;;;;;;;2.17;1.98;;;;;;;;;;10338544;28;20141;-80
2023/07/15 12:04:28;;;;;;;3.45;2.00;;;;;;;;;;10323450;28;20034;-80
2023/07/15 12:09:33;;;;;;;2.65;2.30;;;;;;;;;;10325003;28;20057;-84
2023/07/15 12:14:34;;;;;;;2.70;2.13;;;;;;;;;;10327015;28;20073;-80
2023/07/15 12:19:34;;;;;;;2.35;2.00;;;;;;;;;;10335460;28;20038;-85
2023/07/15 12:24:34;;;;;;;2.03;1.80;;;;;;;;;;10321489;28;20030;-81
2023/07/15 12:29:35;;;;;;;2.47;1.87;;;;;;;;;;10325015;28;20312;-83
2023/07/15 12:34:35;;;;;;;2.47;1.93;;;;;;;;;;10309552;28;20317;-83
2023/07/15 12:39:35;;;;;;;4.10;1.80;;;;;;;;;;10312255;28;20038;-81
2023/07/15 12:44:36;;;;;;;2.67;1.90;;;;;;;;;;10315993;28;20038;-80
2023/07/15 12:49:36;;;;;;;3.30;1.90;;;;;;;;;;10332621;28;20042;-84
2023/07/15 12:54:37;;;;;;;2.30;1.73;;;;;;;;;;10342820;28;20060;-81
2023/07/15 12:59:41;;;;;;;2.23;1.70;;;;;;;;;;10365988;28;20048;-81
2023/07/15 13:04:41;;;;;;;2.20;1.85;;;;;;;;;;10366344;28;20742;-81
2023/07/15 13:09:41;;;;;;;2.00;1.80;;;;;;;;;;10366723;28;20033;-78
2023/07/15 13:14:42;;;;;;;2.00;1.90;;;;;;;;;;10360922;28;20083;-85
2023/07/15 13:19:42;;;;;;;3.07;2.67;;;;;;;;;;10360469;28;20037;-78
2023/07/15 13:24:42;;;;;;;1.90;1.80;;;;;;;;;;10357565;28;20034;-78
2023/07/15 13:29:43;;;;;;;2.33;1.30;;;;;;;;;;10359674;28;20042;-82
2023/07/15 13:34:44;;;;;;;1.70;1.50;;;;;;;;;;10357645;28;20873;-81
2023/07/15 13:39:45;;;;;;;1.70;1.33;;;;;;;;;;10360087;28;20040;-81
2023/07/15 13:44:46;;;;;;;1.35;1.25;;;;;;;;;;10353038;28;20038;-80
2023/07/15 13:49:47;;;;;;;1.90;1.70;;;;;;;;;;10360514;28;20045;-83
2023/07/15 13:54:48;;;;;;;2.10;1.67;;;;;;;;;;10366908;28;20049;-81
2023/07/15 13:59:48;;;;;;;2.55;1.90;;;;;;;;;;10372093;28;20049;-83
2023/07/15 14:04:49;;;;;;;1.90;1.60;;;;;;;;;;10374696;28;20030;-79
2023/07/15 14:09:49;;;;;;;2.37;1.70;;;;;;;;;;10383321;28;20038;-89
2023/07/15 14:14:49;;;;;;;3.10;2.27;;;;;;;;;;10390511;28;20042;-79
2023/07/15 14:19:50;;;;;;;2.93;2.63;;;;;;;;;;10376545;28;20858;-80
2023/07/15 14:24:50;;;;;;;2.77;1.77;;;;;;;;;;10373508;28;20049;-78
2023/07/15 14:29:51;;;;;;;3.95;2.28;;;;;;;;;;10366770;28;20041;-82
2023/07/15 14:34:51;;;;;;;2.40;1.90;;;;;;;;;;10367840;28;20061;-83
2023/07/15 14:39:52;;;;;;;1.80;1.70;;;;;;;;;;10371024;28;20042;-82
2023/07/15 14:44:53;;;;;;;1.92;1.60;;;;;;;;;;10361782;28;20049;-80
2023/07/15 14:49:53;;;;;;;2.10;1.73;;;;;;;;;;10368827;28;20991;-81
2023/07/15 14:54:54;;;;;;;2.23;2.07;;;;;;;;;;10367496;28;20644;-81
2023/07/15 14:59:54;;;;;;;3.60;2.07;;;;;;;;;;10376098;28;20107;-80
2023/07/15 15:04:54;;;;;;;3.03;1.97;;;;;;;;;;10375846;28;20764;-77
2023/07/15 15:09:55;;;;;;;2.47;2.27;;;;;;;;;;10366005;28;20053;-78
2023/07/15 15:14:55;;;;;;;3.43;2.00;;;;;;;;;;10365828;28;20143;-78
2023/07/15 15:19:55;;;;;;;5.30;2.00;;;;;;;;;;10365876;28;20072;-80
2023/07/15 15:24:56;;;;;;;2.65;1.90;;;;;;;;;;10367731;28;20120;-82
2023/07/15 15:29:56;;;;;;;3.03;1.80;;;;;;;;;;10367581;28;20036;-81
2023/07/15 15:34:56;;;;;;;2.23;2.03;;;;;;;;;;10366336;28;20074;-80
2023/07/15 15:39:57;;;;;;;2.70;2.17;;;;;;;;;;10364481;28;20167;-82
2023/07/15 15:44:57;;;;;;;2.50;1.97;;;;;;;;;;10370322;28;20045;-80
2023/07/15 15:49:59;;;;;;;2.20;2.00;;;;;;;;;;10370518;28;20048;-80
2023/07/15 15:54:59;;;;;;;2.40;2.17;;;;;;;;;;10365345;28;20042;-77
2023/07/15 16:00:00;;;;;;;2.38;2.17;;;;;;;;;;10364601;28;20042;-80
2023/07/15 16:05:00;;;;;;;2.50;2.30;;;;;;;;;;10366664;28;20052;-84
2023/07/15 16:10:01;;;;;;;2.60;2.40;;;;;;;;;;10366621;28;20038;-80
2023/07/15 16:15:01;;;;;;;2.67;2.43;;;;;;;;;;10369822;28;20061;-77
2023/07/15 16:20:02;;;;;;;2.87;2.30;;;;;;;;;;10367847;28;20040;-81
2023/07/15 16:25:03;;;;;;;2.50;2.17;;;;;;;;;;10372215;28;20034;-83
2023/07/15 16:30:04;;;;;;;3.35;2.20;;;;;;;;;;10367104;28;20033;-77
2023/07/15 16:35:05;;;;;;;4.20;3.15;;;;;;;;;;10370471;28;20068;-82
2023/07/15 16:40:06;;;;;;;2.53;2.00;;;;;;;;;;10370837;28;20488;-76
2023/07/15 16:45:08;;;;;;;2.88;2.40;;;;;;;;;;10362974;28;20053;-78
2023/07/15 16:50:08;;;;;;;2.40;2.20;;;;;;;;;;10363883;28;20033;-83
2023/07/15 16:55:09;;;;;;;3.88;2.42;;;;;;;;;;10365225;28;20053;-80
2023/07/15 17:00:12;;;;;;;3.07;2.87;;;;;;;;;;10352400;28;20030;-84
2023/07/15 17:05:13;;;;;;;3.20;2.90;;;;;;;;;;10354341;28;20042;-82
2023/07/15 17:10:13;;;;;;;3.33;2.50;;;;;;;;;;10352813;28;20497;-83
2023/07/15 17:15:14;;;;;;;2.50;2.30;;;;;;;;;;10358261;28;20046;-82
2023/07/15 17:20:14;;;;;;;16.53;4.13;;;;;;;;;;10356003;28;20040;-81
2023/07/15 17:25:14;;;;;;;14.53;4.10;;;;;;;;;;10355977;28;20049;-77
2023/07/15 17:30:15;;;;;;;9.33;3.73;;;;;;;;;;10367214;28;20041;-86
2023/07/15 17:35:15;;;;;;;6.27;3.77;;;;;;;;;;10392476;28;20056;-85
2023/07/15 17:40:17;;;;;;;8.10;5.20;;;;;;;;;;10362620;28;20098;-84
2023/07/15 17:45:17;;;;;;;8.60;5.10;;;;;;;;;;10386712;28;20061;-83
2023/07/15 17:50:18;;;;;;;10.80;6.50;;;;;;;;;;10373443;28;20032;-86
2023/07/15 17:55:18;;;;;;;10.02;6.15;;;;;;;;;;10378188;28;20037;-84
2023/07/15 18:00:19;;;;;;;11.90;7.40;;;;;;;;;;10375596;28;20060;-85
2023/07/15 18:05:20;;;;;;;9.57;7.53;;;;;;;;;;10347769;28;20041;-80
2023/07/15 18:10:20;;;;;;;9.37;7.37;;;;;;;;;;10350444;28;20405;-79
2023/07/15 18:15:22;;;;;;;10.68;7.95;;;;;;;;;;10354288;28;20081;-80
2023/07/15 18:20:22;;;;;;;13.80;8.63;;;;;;;;;;10355916;28;20041;-77
2023/07/15 18:25:23;;;;;;;12.10;7.90;;;;;;;;;;10350757;28;20088;-78
2023/07/15 18:30:26;;;;;;;10.57;7.82;;;;;;;;;;10343891;28;20402;-82
2023/07/15 18:35:26;;;;;;;11.02;7.63;;;;;;;;;;10343278;28;20045;-83
2023/07/15 18:40:27;;;;;;;12.10;8.18;;;;;;;;;;10360060;28;20029;-83
2023/07/15 18:45:27;;;;;;;11.00;8.73;;;;;;;;;;10367078;28;20128;-79
2023/07/15 18:50:28;;;;;;;11.15;7.50;;;;;;;;;;10367590;28;20037;-80
2023/07/15 18:55:28;;;;;;;10.37;7.87;;;;;;;;;;10360269;28;20120;-81
2023/07/15 19:00:31;;;;;;;10.23;8.60;;;;;;;;;;10349168;28;20050;-83
2023/07/15 19:05:37;;;;;;;11.43;8.85;;;;;;;;;;10366567;28;20093;-81
2023/07/15 19:10:38;;;;;;;11.73;9.00;;;;;;;;;;10355213;28;20049;-82
2023/07/15 19:15:44;;;;;;;12.52;9.23;;;;;;;;;;10378260;28;20046;-81
2023/07/15 19:20:45;;;;;;;13.15;10.10;;;;;;;;;;10390928;28;20148;-80
2023/07/15 19:25:46;;;;;;;11.63;9.15;;;;;;;;;;10396174;28;20050;-79
2023/07/15 19:30:48;;;;;;;13.00;9.40;;;;;;;;;;10398305;28;20057;-81
2023/07/15 19:35:50;;;;;;;10.63;8.93;;;;;;;;;;10402428;28;20037;-81
2023/07/15 19:40:51;;;;;;;12.97;9.00;;;;;;;;;;10379567;28;20030;-83
2023/07/15 19:45:54;;;;;;;10.18;8.73;;;;;;;;;;10375042;28;20927;-83
2023/07/15 19:50:54;;;;;;;14.13;9.67;;;;;;;;;;10376242;28;20042;-82
2023/07/15 19:55:55;;;;;;;10.18;8.60;;;;;;;;;;10363054;28;20430;-78
2023/07/15 20:00:55;;;;;;;11.90;9.57;;;;;;;;;;10363266;28;20065;-79
2023/07/15 20:05:55;;;;;;;11.50;9.50;;;;;;;;;;10363634;28;21181;-80
2023/07/15 20:10:56;;;;;;;12.90;10.17;;;;;;;;;;10476224;22;20307;-81
2023/07/15 20:16:05;;;;;;;12.40;9.10;;;;;;;;;;11099524;22;20033;-83
2023/07/15 20:21:06;;;;;;;13.35;9.45;;;;;;;;;;10372354;28;20053;-78
2023/07/15 20:26:06;;;;;;;10.65;9.50;;;;;;;;;;10403200;28;20044;-81
2023/07/15 20:31:07;;;;;;;13.87;9.97;;;;;;;;;;10420072;28;20037;-79
2023/07/15 20:36:07;;;;;;;11.10;9.53;;;;;;;;;;10406109;28;20349;-85
2023/07/15 20:41:07;;;;;;;13.50;10.87;;;;;;;;;;10406505;28;20391;-86
2023/07/15 20:46:08;;;;;;;13.10;9.90;;;;;;;;;;10382139;28;20280;-76
2023/07/15 20:51:08;;;;;;;12.07;9.17;;;;;;;;;;10371677;28;20048;-76
2023/07/15 20:56:08;;;;;;;14.23;9.83;;;;;;;;;;10373862;28;20045;-80
2023/07/15 21:01:09;;;;;;;12.13;9.83;;;;;;;;;;10407809;28;20025;-75
2023/07/15 21:06:09;;;;;;;11.00;9.20;;;;;;;;;;10406134;28;20045;-77
2023/07/15 21:11:13;;;;;;;12.20;10.10;;;;;;;;;;10414110;28;20822;-76
2023/07/15 21:16:13;;;;;;;12.63;9.77;;;;;;;;;;10412842;28;20703;-76
2023/07/15 21:21:14;;;;;;;14.27;11.53;;;;;;;;;;10414527;28;20078;-74
2023/07/15 21:26:14;;;;;;;14.55;11.50;;;;;;;;;;10410521;28;20366;-73
2023/07/15 21:31:15;;;;;;;14.00;11.07;;;;;;;;;;10415279;28;20615;-73
2023/07/15 21:36:15;;;;;;;16.83;12.25;;;;;;;;;;10407887;28;20459;-75
2023/07/15 21:41:16;;;;;;;17.47;12.67;;;;;;;;;;10411386;28;20029;-74
2023/07/15 21:46:16;;;;;;;15.90;10.63;;;;;;;;;;10407056;28;20037;-72
2023/07/15 21:51:16;;;;;;;13.73;11.53;;;;;;;;;;10410624;28;20041;-72
2023/07/15 21:56:17;;;;;;;15.27;12.30;;;;;;;;;;10403668;28;20047;-71
2023/07/15 22:01:17;;;;;;;14.30;11.20;;;;;;;;;;10408442;28;20041;-71
2023/07/15 22:06:17;;;;;;;13.37;10.47;;;;;;;;;;10407975;28;20115;-72
2023/07/15 22:11:18;;;;;;;15.63;11.10;;;;;;;;;;10406328;28;20037;-72
2023/07/15 22:16:18;;;;;;;17.52;10.57;;;;;;;;;;10416520;28;20308;-72
2023/07/15 22:21:19;;;;;;;12.67;9.47;;;;;;;;;;10411072;28;20036;-72
2023/07/15 22:26:19;;;;;;;13.43;9.57;;;;;;;;;;10415922;28;20279;-72
2023/07/15 22:31:19;;;;;;;10.30;8.38;;;;;;;;;;10413021;28;20029;-73
2023/07/15 22:36:24;;;;;;;12.95;9.13;;;;;;;;;;10417449;28;20156;-73
2023/07/15 22:41:25;;;;;;;10.95;8.35;;;;;;;;;;10416723;28;20032;-73
2023/07/15 22:46:25;;;;;;;12.33;9.37;;;;;;;;;;10416436;28;20040;-73
2023/07/15 22:51:25;;;;;;;11.07;8.53;;;;;;;;;;10394882;28;20477;-73
2023/07/15 22:56:26;;;;;;;12.82;9.85;;;;;;;;;;10407508;28;20407;-72
2023/07/15 23:01:26;;;;;;;13.82;9.18;;;;;;;;;;10412384;28;20033;-71
2023/07/15 23:06:27;;;;;;;15.50;10.70;;;;;;;;;;10400135;28;20041;-71
2023/07/15 23:11:27;;;;;;;12.27;9.90;;;;;;;;;;10416456;28;20045;-72
2023/07/15 23:16:27;;;;;;;13.33;9.40;;;;;;;;;;10410145;28;20044;-73
2023/07/15 23:21:28;;;;;;;13.13;9.77;;;;;;;;;;10414622;28;20477;-72
2023/07/15 23:26:28;;;;;;;12.50;9.68;;;;;;;;;;10397940;28;20029;-73
2023/07/15 23:31:28;;;;;;;12.53;9.47;;;;;;;;;;10417618;28;20048;-72
2023/07/15 23:36:29;;;;;;;12.90;10.73;;;;;;;;;;10417711;28;20095;-73
2023/07/15 23:41:29;;;;;;;15.87;11.03;;;;;;;;;;10396282;28;20520;-72
2023/07/15 23:46:29;;;;;;;13.63;10.17;;;;;;;;;;10408709;28;20037;-71
2023/07/15 23:51:30;;;;;;;12.77;11.03;;;;;;;;;;10408482;28;20045;-77
2023/07/15 23:56:30;;;;;;;13.23;11.20;;;;;;;;;;10411351;28;20065;-74
